Time;durP1;ratioP1;P1;durP2;ratioP2;P2;SDS_P1;SDS_P2;PMS_P1;PMS_P2;Temp;Humidity;BMP_temperature;BMP_pressure;BME280_temperature;BME280_humidity;BME280_pressure;Samples;Min_cycle;Max_cycle;Signal;HPM_P1;HPM_P2
2022/02/14 00:02:14;;;;;;;4.13;2.63;;;10.70;99.90;;;;;;5080425;28;20242;-57
2022/02/14 00:04:42;;;;;;;7.50;2.97;;;10.80;99.90;;;;;;5081120;28;20202;-56
2022/02/14 00:07:09;;;;;;;4.47;2.50;;;10.80;99.90;;;;;;5084044;28;20209;-57
2022/02/14 00:09:36;;;;;;;6.27;2.73;;;10.80;99.90;;;;;;5076857;28;20235;-58
2022/02/14 00:12:03;;;;;;;6.00;2.20;;;10.80;99.90;;;;;;5082675;28;20625;-57
2022/02/14 00:14:30;;;;;;;7.63;2.43;;;10.80;99.90;;;;;;5080581;28;20266;-57
2022/02/14 00:16:57;;;;;;;3.87;2.40;;;10.70;99.90;;;;;;5081765;28;20317;-57
2022/02/14 00:19:24;;;;;;;6.50;2.70;;;10.70;97.30;;;;;;5081062;28;20459;-60
2022/02/14 00:21:51;;;;;;;4.40;2.50;;;10.70;99.90;;;;;;5079120;28;20249;-58
2022/02/14 00:24:18;;;;;;;5.20;2.27;;;10.70;60.90;;;;;;5078681;28;20634;-58
2022/02/14 00:26:45;;;;;;;6.57;2.30;;;10.70;99.90;;;;;;5080667;28;20670;-57
2022/02/14 00:29:13;;;;;;;5.63;2.40;;;10.60;1.00;;;;;;5080889;28;20640;-58
2022/02/14 00:31:40;;;;;;;4.63;2.30;;;10.60;99.90;;;;;;5079952;28;20254;-56
2022/02/14 00:34:07;;;;;;;3.53;2.27;;;10.60;1.00;;;;;;5080252;28;20232;-56
2022/02/14 00:36:35;;;;;;;4.00;2.10;;;10.60;1.00;;;;;;5081179;28;20713;-57
2022/02/14 00:39:02;;;;;;;8.03;2.93;;;10.50;1.00;;;;;;5081299;28;20617;-56
2022/02/14 00:41:29;;;;;;;3.60;2.03;;;10.60;1.00;;;;;;5079671;28;20562;-57
2022/02/14 00:43:56;;;;;;;5.00;2.67;;;10.60;99.90;;;;;;5077406;28;20237;-57
2022/02/14 00:46:23;;;;;;;5.87;2.20;;;10.60;99.90;;;;;;5078334;28;20211;-56
2022/02/14 00:48:49;;;;;;;2.23;1.80;;;10.60;99.90;;;;;;5081683;28;20768;-57
2022/02/14 00:51:16;;;;;;;3.20;1.93;;;10.60;99.90;;;;;;5078987;28;20556;-56
2022/02/14 00:53:43;;;;;;;5.73;2.10;;;10.60;99.90;;;;;;5080333;28;20677;-58
2022/02/14 00:56:10;;;;;;;4.50;2.00;;;10.60;1.00;;;;;;5080207;28;20679;-57
2022/02/14 00:58:37;;;;;;;5.47;2.00;;;10.60;1.00;;;;;;5082125;28;20258;-57
2022/02/14 01:01:04;;;;;;;6.60;2.00;;;10.60;1.00;;;;;;5078654;28;20208;-59
2022/02/14 01:03:30;;;;;;;4.63;1.93;;;10.50;1.00;;;;;;5083215;28;20233;-57
2022/02/14 01:05:57;;;;;;;4.63;2.00;;;10.50;1.00;;;;;;5079456;28;20288;-57
2022/02/14 01:08:26;;;;;;;5.57;2.40;;;10.50;1.00;;;;;;5076810;28;20206;-57
2022/02/14 01:10:53;;;;;;;5.33;2.20;;;10.60;1.00;;;;;;5078331;28;20261;-57
2022/02/14 01:13:20;;;;;;;4.17;1.90;;;10.50;1.00;;;;;;5080372;28;20301;-57
2022/02/14 01:15:47;;;;;;;3.43;2.17;;;10.50;1.00;;;;;;5079448;28;20606;-57
2022/02/14 01:18:13;;;;;;;3.60;2.00;;;10.50;1.00;;;;;;5079080;28;20304;-57
2022/02/14 01:20:40;;;;;;;4.00;2.00;;;10.50;1.00;;;;;;5059196;28;20741;-57
2022/02/14 01:23:07;;;;;;;3.87;2.10;;;10.50;1.00;;;;;;5078521;28;20296;-57
2022/02/14 01:25:34;;;;;;;3.90;2.43;;;10.50;1.00;;;;;;5073810;28;20671;-58
2022/02/14 01:28:01;;;;;;;6.23;1.83;;;10.50;1.00;;;;;;5060527;28;20293;-58
2022/02/14 01:30:28;;;;;;;4.80;1.80;;;10.40;1.00;;;;;;5085594;28;20282;-58
2022/02/14 01:32:54;;;;;;;4.33;1.83;;;10.50;1.00;;;;;;5088709;28;20650;-56
2022/02/14 01:35:21;;;;;;;5.57;1.90;;;10.50;1.00;;;;;;5087947;28;20306;-55
2022/02/14 01:37:48;;;;;;;6.87;1.70;;;10.50;1.00;;;;;;5086129;28;21128;-58
2022/02/14 01:40:15;;;;;;;2.60;2.10;;;10.50;1.00;;;;;;5084276;28;20229;-58
2022/02/14 01:42:42;;;;;;;5.97;1.87;;;10.50;1.00;;;;;;5090542;28;20340;-56
2022/02/14 01:45:10;;;;;;;5.30;2.00;;;10.40;1.00;;;;;;5089837;28;20202;-56
2022/02/14 01:47:38;;;;;;;4.27;1.70;;;10.40;1.00;;;;;;5090154;28;20210;-56
2022/02/14 01:50:06;;;;;;;5.53;1.70;;;10.30;1.00;;;;;;5077873;28;20510;-56
2022/02/14 01:52:35;;;;;;;4.83;2.20;;;10.30;1.00;;;;;;5091814;28;20544;-55
2022/02/14 01:55:06;;;;;;;4.07;1.77;;;10.30;1.00;;;;;;5086053;28;20220;-55
2022/02/14 01:57:35;;;;;;;3.03;1.70;;;10.40;1.00;;;;;;5088631;28;20344;-55
2022/02/14 02:00:11;;;;;;;5.40;1.43;;;10.40;1.00;;;;;;5081774;28;20958;-55
2022/02/14 02:02:38;;;;;;;5.43;1.83;;;10.40;1.00;;;;;;5087521;28;20200;-55
2022/02/14 02:05:06;;;;;;;4.57;1.90;;;10.40;1.00;;;;;;5084213;28;20198;-56
2022/02/14 02:07:33;;;;;;;3.43;1.80;;;10.50;1.00;;;;;;5083977;28;20515;-55
2022/02/14 02:10:01;;;;;;;3.30;1.70;;;10.50;1.00;;;;;;5083610;28;20636;-55
2022/02/14 02:12:28;;;;;;;6.13;1.60;;;10.60;1.00;;;;;;5084740;28;20218;-56
2022/02/14 02:14:57;;;;;;;3.47;2.00;;;10.60;1.00;;;;;;5057793;28;20475;-56
2022/02/14 02:17:36;;;;;;;2.20;1.47;;;10.70;1.00;;;;;;5085530;28;20309;-55
2022/02/14 02:20:06;;;;;;;2.97;1.20;;;10.70;1.00;;;;;;5085875;28;20981;-55
2022/02/14 02:22:33;;;;;;;4.83;1.60;;;10.80;1.00;;;;;;5089160;28;20203;-55
2022/02/14 02:25:00;;;;;;;5.17;1.87;;;10.80;1.00;;;;;;5082003;28;20302;-56
2022/02/14 02:27:28;;;;;;;3.53;1.70;;;10.90;99.90;;;;;;5075322;28;20286;-55
2022/02/14 02:29:57;;;;;;;3.33;1.43;;;10.90;1.00;;;;;;5079721;28;20670;-56
2022/02/14 02:32:25;;;;;;;5.53;1.83;;;10.90;99.90;;;;;;5083179;28;20204;-59
2022/02/14 02:34:52;;;;;;;3.53;1.67;;;10.90;1.00;;;;;;5081673;28;20314;-56
2022/02/14 02:37:19;;;;;;;5.20;2.80;;;11.00;1.00;;;;;;5081169;28;20710;-55
2022/02/14 02:39:46;;;;;;;4.27;1.80;;;11.00;1.00;;;;;;5074993;28;20294;-56
2022/02/14 02:42:15;;;;;;;3.10;1.93;;;11.00;1.00;;;;;;5082357;28;20241;-56
2022/02/14 02:44:43;;;;;;;4.90;1.77;;;11.00;1.00;;;;;;5075088;28;20202;-56
2022/02/14 02:47:14;;;;;;;1.97;1.37;;;10.90;1.00;;;;;;5070514;28;20670;-56
2022/02/14 02:49:42;;;;;;;5.43;2.40;;;11.00;1.00;;;;;;5077979;28;20260;-58
2022/02/14 02:52:11;;;;;;;7.43;2.30;;;11.00;99.90;;;;;;5081460;28;20231;-56
2022/02/14 02:54:38;;;;;;;3.40;1.40;;;11.00;99.90;;;;;;5078048;28;20313;-58
2022/02/14 02:57:06;;;;;;;2.17;1.43;;;10.90;99.90;;;;;;5062294;28;20210;-56
2022/02/14 02:59:38;;;;;;;4.03;1.73;;;11.00;91.00;;;;;;5079063;28;20202;-60
2022/02/14 03:02:07;;;;;;;3.60;1.33;;;11.00;99.90;;;;;;5081840;28;20337;-56
2022/02/14 03:04:34;;;;;;;2.83;1.50;;;11.00;99.90;;;;;;5081702;28;20593;-56
2022/02/14 03:07:01;;;;;;;3.23;1.97;;;11.00;99.90;;;;;;5080495;28;20230;-56
2022/02/14 03:09:28;;;;;;;4.33;1.60;;;11.00;99.90;;;;;;5077448;28;20315;-56
2022/02/14 03:11:57;;;;;;;4.23;1.60;;;11.00;99.90;;;;;;5081263;28;20202;-56
2022/02/14 03:14:24;;;;;;;4.40;1.47;;;11.00;99.90;;;;;;5080530;28;20279;-56
2022/02/14 03:16:51;;;;;;;6.23;1.57;;;11.00;1.00;;;;;;5079717;28;20215;-56
2022/02/14 03:19:18;;;;;;;3.53;1.30;;;11.00;1.00;;;;;;5078925;28;20249;-56
2022/02/14 03:21:45;;;;;;;3.03;1.50;;;11.00;1.00;;;;;;5076946;28;20198;-56
2022/02/14 03:24:13;;;;;;;4.07;1.70;;;10.90;1.00;;;;;;5078691;28;20251;-57
2022/02/14 03:26:40;;;;;;;4.40;1.50;;;11.00;99.90;;;;;;5081671;28;21601;-57
2022/02/14 03:29:08;;;;;;;2.57;1.60;;;10.90;99.90;;;;;;5077291;28;20200;-58
2022/02/14 03:31:34;;;;;;;4.27;1.50;;;11.00;99.90;;;;;;5079730;28;20223;-58
2022/02/14 03:34:01;;;;;;;5.20;1.50;;;11.00;1.00;;;;;;5079575;28;20195;-57
2022/02/14 03:36:28;;;;;;;4.37;1.70;;;10.90;1.00;;;;;;5080066;28;20213;-58
2022/02/14 03:38:55;;;;;;;3.87;1.53;;;10.90;99.90;;;;;;5076523;28;20223;-58
2022/02/14 03:41:22;;;;;;;3.70;1.60;;;10.90;99.90;;;;;;5079127;28;20290;-58
2022/02/14 03:43:49;;;;;;;2.93;1.47;;;10.90;99.90;;;;;;5060300;28;20293;-57
2022/02/14 03:46:16;;;;;;;5.03;2.27;;;10.90;99.90;;;;;;5079852;28;20195;-57
2022/02/14 03:48:43;;;;;;;4.83;1.50;;;11.00;99.90;;;;;;5079313;28;20272;-57
2022/02/14 03:51:10;;;;;;;3.10;1.50;;;11.00;99.90;;;;;;5079196;28;20317;-57
2022/02/14 03:53:37;;;;;;;3.57;1.63;;;10.90;99.90;;;;;;5064140;28;20203;-57
2022/02/14 03:56:05;;;;;;;4.83;1.50;;;11.00;99.90;;;;;;5078619;28;20205;-58
2022/02/14 03:58:35;;;;;;;3.03;1.90;;;11.00;99.90;;;;;;5079162;28;20326;-57
2022/02/14 04:01:02;;;;;;;2.80;1.63;;;11.00;99.90;;;;;;5074798;28;20264;-58
2022/02/14 04:03:29;;;;;;;3.07;1.67;;;11.00;1.00;;;;;;5079644;28;20651;-58
2022/02/14 04:05:56;;;;;;;6.30;1.30;;;11.00;1.00;;;;;;5078677;28;20293;-57
2022/02/14 04:08:24;;;;;;;2.40;1.30;;;11.00;99.90;;;;;;5075840;28;20240;-58
2022/02/14 04:10:52;;;;;;;4.13;1.40;;;11.00;99.90;;;;;;5079136;28;20257;-57
2022/02/14 04:13:19;;;;;;;3.60;1.40;;;11.00;1.00;;;;;;5077825;28;20326;-58
2022/02/14 04:15:46;;;;;;;3.80;1.40;;;11.00;99.90;;;;;;5078807;28;20764;-58
2022/02/14 04:18:13;;;;;;;4.43;1.60;;;11.00;99.90;;;;;;5076002;28;20223;-55
2022/02/14 04:20:40;;;;;;;4.17;1.47;;;11.00;99.90;;;;;;5077204;28;20202;-58
2022/02/14 04:23:07;;;;;;;5.33;1.30;;;11.00;1.00;;;;;;5080774;28;20213;-57
2022/02/14 04:25:34;;;;;;;2.57;1.40;;;11.00;99.90;;;;;;5078412;28;20318;-57
2022/02/14 04:28:01;;;;;;;2.33;1.40;;;11.00;99.90;;;;;;5077220;28;20204;-58
2022/02/14 04:30:29;;;;;;;5.60;1.63;;;11.00;1.00;;;;;;5075859;28;20205;-56
2022/02/14 04:32:59;;;;;;;3.97;1.43;;;11.00;1.00;;;;;;5077182;28;20206;-56
2022/02/14 04:35:28;;;;;;;5.13;1.50;;;11.00;1.00;;;;;;5074710;28;20279;-56
2022/02/14 04:37:59;;;;;;;3.00;1.40;;;11.10;1.00;;;;;;5080309;28;20222;-56
2022/02/14 04:40:31;;;;;;;3.13;2.33;;;11.10;99.90;;;;;;5077705;28;20569;-56
2022/02/14 04:42:59;;;;;;;2.90;1.77;;;11.10;1.00;;;;;;5076847;28;20486;-56
2022/02/14 04:45:27;;;;;;;4.20;1.40;;;11.10;1.00;;;;;;5076570;28;20221;-56
2022/02/14 04:47:54;;;;;;;1.60;1.20;;;11.10;99.90;;;;;;5076096;28;20205;-56
2022/02/14 04:50:22;;;;;;;4.93;1.50;;;11.10;1.00;;;;;;5077018;28;20586;-56
2022/02/14 04:52:49;;;;;;;5.57;1.80;;;11.20;1.00;;;;;;5058289;28;20234;-56
2022/02/14 04:55:16;;;;;;;1.87;1.40;;;11.20;1.00;;;;;;5077010;28;20203;-57
2022/02/14 04:57:43;;;;;;;3.67;1.53;;;11.20;1.00;;;;;;5075550;28;20226;-56
2022/02/14 05:00:12;;;;;;;4.93;1.43;;;11.20;1.00;;;;;;5076651;28;20294;-56
2022/02/14 05:02:41;;;;;;;1.57;1.20;;;11.30;1.00;;;;;;5077143;28;20662;-56
2022/02/14 05:05:08;;;;;;;2.50;1.40;;;11.30;1.00;;;;;;5075508;28;20251;-56
2022/02/14 05:07:35;;;;;;;4.80;1.63;;;11.20;1.00;;;;;;5074517;28;20614;-58
2022/02/14 05:10:05;;;;;;;2.13;1.43;;;11.20;1.00;;;;;;5073689;28;20517;-55
2022/02/14 05:12:33;;;;;;;3.07;1.37;;;11.20;1.00;;;;;;5077100;28;20190;-56
2022/02/14 05:15:00;;;;;;;2.70;1.23;;;11.30;99.90;;;;;;5076203;28;20240;-57
2022/02/14 05:17:27;;;;;;;1.27;1.03;;;11.30;1.00;;;;;;5080745;28;20234;-56
2022/02/14 05:19:54;;;;;;;1.73;1.33;;;11.20;1.00;;;;;;5076913;28;20592;-57
2022/02/14 05:22:21;;;;;;;2.57;1.23;;;11.30;1.00;;;;;;5075610;28;20255;-57
2022/02/14 05:24:48;;;;;;;3.77;1.30;;;11.20;1.00;;;;;;5077673;28;20631;-57
2022/02/14 05:27:16;;;;;;;3.50;1.73;;;11.30;1.00;;;;;;5080637;28;20282;-57
2022/02/14 05:29:43;;;;;;;1.90;1.33;;;11.20;1.00;;;;;;5079212;28;20207;-57
2022/02/14 05:32:10;;;;;;;2.33;1.23;;;11.20;1.00;;;;;;5080544;28;20199;-57
2022/02/14 05:34:37;;;;;;;4.93;1.83;;;11.20;1.00;;;;;;5077964;28;20631;-57
2022/02/14 05:37:04;;;;;;;5.00;1.80;;;11.20;1.00;;;;;;5079488;28;20627;-57
2022/02/14 05:39:31;;;;;;;3.70;1.57;;;11.30;1.00;;;;;;5074872;28;20198;-57
2022/02/14 05:41:58;;;;;;;1.97;1.30;;;11.30;1.00;;;;;;5082343;28;20248;-57
2022/02/14 05:44:25;;;;;;;3.60;1.50;;;11.30;1.00;;;;;;5075961;28;20522;-57
2022/02/14 05:46:52;;;;;;;2.63;1.30;;;11.30;1.00;;;;;;5061951;28;20475;-57
2022/02/14 05:49:18;;;;;;;3.33;1.20;;;11.30;1.00;;;;;;5077322;28;20197;-57
2022/02/14 05:51:45;;;;;;;2.43;1.53;;;11.30;1.00;;;;;;5078599;28;20314;-57
2022/02/14 05:54:12;;;;;;;2.63;1.17;;;11.30;1.00;;;;;;5057459;28;22726;-56
2022/02/14 05:56:39;;;;;;;4.10;1.73;;;11.20;1.00;;;;;;5078744;28;20380;-56
2022/02/14 05:59:05;;;;;;;3.60;1.50;;;11.20;1.00;;;;;;5079982;28;20311;-57
2022/02/14 06:01:32;;;;;;;2.43;1.17;;;11.30;1.00;;;;;;5077203;28;20243;-57
2022/02/14 06:03:59;;;;;;;1.50;1.27;;;11.30;1.00;;;;;;5084313;28;20263;-57
2022/02/14 06:06:26;;;;;;;1.67;1.20;;;11.30;1.00;;;;;;5080385;28;20295;-57
2022/02/14 06:08:53;;;;;;;2.77;1.37;;;11.30;99.90;;;;;;5080767;28;20264;-57
2022/02/14 06:11:21;;;;;;;2.50;1.57;;;11.30;1.00;;;;;;5082057;28;20371;-57
2022/02/14 06:13:48;;;;;;;5.53;1.70;;;11.30;44.90;;;;;;5080806;28;20747;-58
2022/02/14 06:16:15;;;;;;;1.70;1.20;;;11.20;99.90;;;;;;5083577;28;20814;-57
2022/02/14 06:18:42;;;;;;;2.50;1.20;;;11.30;1.00;;;;;;5079961;28;20387;-57
2022/02/14 06:21:09;;;;;;;2.40;1.10;;;11.30;1.00;;;;;;5079735;28;20191;-57
2022/02/14 06:23:36;;;;;;;2.70;1.20;;;11.30;1.00;;;;;;5080539;28;20487;-58
2022/02/14 06:26:03;;;;;;;3.20;1.27;;;11.30;1.00;;;;;;5081813;28;20698;-57
2022/02/14 06:28:30;;;;;;;5.73;1.87;;;11.30;99.90;;;;;;5083785;28;20198;-57
2022/02/14 06:30:57;;;;;;;3.07;1.93;;;11.30;1.00;;;;;;5077992;28;20686;-58
2022/02/14 06:33:24;;;;;;;2.17;1.30;;;11.30;59.10;;;;;;5078999;28;20628;-57
2022/02/14 06:35:52;;;;;;;2.40;1.40;;;11.30;99.90;;;;;;5080014;28;20229;-57
2022/02/14 06:38:19;;;;;;;5.77;1.83;;;11.40;99.90;;;;;;5071529;28;20667;-57
2022/02/14 06:40:46;;;;;;;3.40;1.37;;;11.30;99.90;;;;;;5076436;28;20348;-58
2022/02/14 06:43:13;;;;;;;5.30;1.57;;;11.30;99.90;;;;;;5074142;28;20643;-58
2022/02/14 06:45:40;;;;;;;2.47;1.50;;;11.20;99.90;;;;;;5060750;28;20203;-58
2022/02/14 06:48:06;;;;;;;2.50;1.63;;;11.30;99.90;;;;;;5078301;28;20664;-57
2022/02/14 06:50:33;;;;;;;4.80;1.50;;;11.20;1.00;;;;;;5079189;28;20233;-58
2022/02/14 06:53:00;;;;;;;2.53;1.60;;;11.20;1.00;;;;;;5082095;28;20687;-58
2022/02/14 06:55:27;;;;;;;3.03;1.27;;;11.10;1.00;;;;;;5073908;28;20234;-58
2022/02/14 06:57:54;;;;;;;2.30;1.33;;;11.10;1.00;;;;;;5076788;28;20713;-56
2022/02/14 07:00:21;;;;;;;2.63;1.77;;;11.20;1.00;;;;;;5069832;28;20241;-58
2022/02/14 07:02:48;;;;;;;3.80;2.10;;;11.10;1.00;;;;;;5072966;28;20324;-58
2022/02/14 07:05:16;;;;;;;3.17;1.33;;;11.10;1.00;;;;;;5077254;28;20595;-56
2022/02/14 07:07:44;;;;;;;2.57;1.40;;;11.10;1.00;;;;;;5075725;28;20330;-57
2022/02/14 07:10:12;;;;;;;2.60;1.63;;;11.00;1.00;;;;;;5075717;28;20794;-56
2022/02/14 07:12:41;;;;;;;2.60;1.23;;;11.00;1.00;;;;;;5069341;28;20652;-57
2022/02/14 07:15:13;;;;;;;3.00;1.57;;;10.90;1.00;;;;;;5078390;28;20563;-57
2022/02/14 07:17:45;;;;;;;3.57;1.27;;;10.90;1.00;;;;;;5073624;28;20199;-56
2022/02/14 07:20:12;;;;;;;2.77;1.97;;;10.90;1.00;;;;;;5072901;28;20234;-55
2022/02/14 07:22:39;;;;;;;3.23;1.40;;;11.00;1.00;;;;;;5079177;28;20290;-56
2022/02/14 07:25:07;;;;;;;5.07;1.90;;;11.00;1.00;;;;;;5077617;28;20234;-58
2022/02/14 07:27:35;;;;;;;1.53;1.23;;;11.00;1.00;;;;;;5079337;28;20606;-58
2022/02/14 07:30:07;;;;;;;3.17;1.33;;;11.00;1.00;;;;;;5078309;28;20198;-57
2022/02/14 07:32:34;;;;;;;3.20;1.40;;;11.00;1.00;;;;;;5079657;28;20273;-56
2022/02/14 07:35:02;;;;;;;4.43;1.50;;;10.90;1.00;;;;;;5078998;28;20816;-58
2022/02/14 07:37:29;;;;;;;2.07;1.13;;;10.90;1.00;;;;;;5063148;28;20287;-57
2022/02/14 07:39:56;;;;;;;2.40;1.50;;;10.80;1.00;;;;;;5079935;28;20709;-57
2022/02/14 07:42:22;;;;;;;4.70;1.67;;;10.70;99.90;;;;;;5080627;28;20202;-57
2022/02/14 07:44:49;;;;;;;2.23;1.20;;;10.40;99.90;;;;;;5061995;28;20693;-57
2022/02/14 07:47:17;;;;;;;2.17;1.00;;;10.20;99.90;;;;;;5072032;28;20304;-57
2022/02/14 07:49:44;;;;;;;2.27;0.70;;;10.00;99.90;;;;;;5071238;28;20203;-58
2022/02/14 07:52:11;;;;;;;0.80;0.57;;;9.70;99.90;;;;;;5080015;28;20240;-56
2022/02/14 07:54:38;;;;;;;2.60;0.60;;;9.50;99.90;;;;;;5079703;28;20255;-57
2022/02/14 07:57:07;;;;;;;0.40;0.40;;;9.40;99.90;;;;;;5081305;28;20209;-58
2022/02/14 07:59:34;;;;;;;1.00;0.60;;;9.20;99.90;;;;;;5079342;28;20583;-58
2022/02/14 08:02:01;;;;;;;0.80;0.60;;;9.10;99.90;;;;;;5078902;28;20651;-57
2022/02/14 08:04:28;;;;;;;0.43;0.43;;;9.00;99.90;;;;;;5063233;28;20616;-56
2022/02/14 08:06:54;;;;;;;1.90;0.47;;;9.00;99.90;;;;;;5080396;28;20322;-56
2022/02/14 08:09:21;;;;;;;1.33;0.57;;;8.90;99.90;;;;;;5078520;28;20249;-56
2022/02/14 08:11:48;;;;;;;0.67;0.40;;;8.80;99.90;;;;;;5075441;28;20612;-57
2022/02/14 08:14:20;;;;;;;0.40;0.40;;;8.80;99.90;;;;;;5076786;28;20214;-56
2022/02/14 08:16:47;;;;;;;0.73;0.40;;;8.70;99.90;;;;;;5061148;28;20269;-56
2022/02/14 08:19:14;;;;;;;1.30;0.60;;;8.70;99.90;;;;;;5072864;28;20304;-58
2022/02/14 08:21:41;;;;;;;0.40;0.40;;;8.70;99.90;;;;;;5070862;28;20591;-56
2022/02/14 08:24:08;;;;;;;0.60;0.40;;;8.50;99.90;;;;;;5058200;28;20649;-56
2022/02/14 08:26:35;;;;;;;0.33;0.30;;;8.40;99.90;;;;;;5073053;28;20236;-58
2022/02/14 08:29:02;;;;;;;0.67;0.40;;;8.50;99.90;;;;;;5076042;28;20305;-58
2022/02/14 08:31:29;;;;;;;0.30;0.30;;;8.40;99.90;;;;;;5079270;28;20225;-57
2022/02/14 08:33:59;;;;;;;0.83;0.40;;;8.40;99.90;;;;;;5074903;28;20676;-57
2022/02/14 08:36:27;;;;;;;0.60;0.30;;;8.40;99.90;;;;;;5076987;28;20300;-57
2022/02/14 08:38:54;;;;;;;0.37;0.30;;;8.40;99.90;;;;;;5075476;28;20221;-61
2022/02/14 08:41:21;;;;;;;2.13;0.63;;;8.50;99.90;;;;;;5051137;28;20214;-57
2022/02/14 08:43:49;;;;;;;1.80;0.67;;;8.60;99.90;;;;;;5073874;28;20276;-60
2022/02/14 08:46:25;;;;;;;1.53;0.53;;;8.60;99.90;;;;;;5038392;28;20694;-58
2022/02/14 08:48:54;;;;;;;1.13;0.77;;;8.60;99.90;;;;;;5039017;28;20617;-60
2022/02/14 08:51:22;;;;;;;1.37;0.90;;;8.60;99.90;;;;;;5035451;28;20884;-57
2022/02/14 08:53:50;;;;;;;1.20;1.00;;;8.60;99.90;;;;;;5066959;28;20293;-57
2022/02/14 08:56:17;;;;;;;2.20;1.20;;;8.70;99.90;;;;;;5036247;28;20212;-60
2022/02/14 08:58:47;;;;;;;1.30;1.20;;;8.70;99.90;;;;;;5070079;28;20197;-58
2022/02/14 09:01:16;;;;;;;4.73;1.53;;;8.70;99.90;;;;;;5066193;28;20220;-58
2022/02/14 09:03:43;;;;;;;4.50;2.20;;;8.70;99.90;;;;;;5037361;28;20349;-58
2022/02/14 09:06:10;;;;;;;2.57;2.37;;;8.70;99.90;;;;;;5037909;28;20245;-58
2022/02/14 09:08:37;;;;;;;3.50;2.90;;;8.80;99.90;;;;;;5034661;28;20309;-57
2022/02/14 09:11:04;;;;;;;3.03;2.60;;;8.80;99.90;;;;;;5037670;28;20204;-58
2022/02/14 09:13:32;;;;;;;3.60;2.90;;;8.90;99.90;;;;;;5036155;28;20292;-58
2022/02/14 09:16:03;;;;;;;3.13;2.73;;;9.00;99.90;;;;;;5032382;28;20605;-57
2022/02/14 09:18:31;;;;;;;4.57;2.30;;;9.00;99.90;;;;;;5039810;28;20206;-55
2022/02/14 09:20:58;;;;;;;3.23;2.90;;;9.10;99.90;;;;;;5043177;28;20246;-57
2022/02/14 09:23:26;;;;;;;2.80;2.53;;;9.30;99.90;;;;;;5045730;28;20242;-58
2022/02/14 09:25:53;;;;;;;2.60;2.40;;;9.50;99.90;;;;;;5042960;28;20469;-56
2022/02/14 09:28:20;;;;;;;2.20;2.00;;;9.60;99.90;;;;;;5044540;28;20469;-57
2022/02/14 09:30:47;;;;;;;2.53;2.20;;;9.40;99.90;;;;;;5036150;28;20295;-58
2022/02/14 09:33:14;;;;;;;2.20;1.70;;;9.40;99.90;;;;;;5037173;28;20218;-57
2022/02/14 09:35:41;;;;;;;2.37;2.07;;;9.50;99.90;;;;;;5038269;28;20223;-56
2022/02/14 09:38:10;;;;;;;2.47;1.90;;;9.50;99.90;;;;;;5034811;28;20208;-56
2022/02/14 09:40:37;;;;;;;2.10;1.90;;;9.50;99.90;;;;;;5035055;28;20282;-58
2022/02/14 09:43:11;;;;;;;1.70;1.60;;;9.40;99.90;;;;;;5036256;28;20214;-57
2022/02/14 09:45:39;;;;;;;2.10;1.50;;;9.30;99.90;;;;;;5044018;28;20329;-56
2022/02/14 09:48:08;;;;;;;3.80;1.80;;;9.30;99.90;;;;;;5037826;28;20242;-56
2022/02/14 09:50:36;;;;;;;2.17;1.97;;;9.30;99.90;;;;;;5038307;28;20618;-56
2022/02/14 09:53:07;;;;;;;2.23;1.83;;;9.30;99.90;;;;;;5039881;28;20289;-57
2022/02/14 09:55:39;;;;;;;2.33;2.10;;;9.30;99.90;;;;;;5035400;28;20664;-56
2022/02/14 09:58:07;;;;;;;3.10;2.60;;;9.30;99.90;;;;;;5020656;28;20202;-55
2022/02/14 10:00:36;;;;;;;3.07;2.53;;;9.30;99.90;;;;;;5021169;28;20307;-56
2022/02/14 10:03:20;;;;;;;3.73;2.53;;;9.40;99.90;;;;;;5029459;28;20707;-55
2022/02/14 10:05:49;;;;;;;4.07;2.17;;;9.40;99.90;;;;;;5027124;28;20261;-55
2022/02/14 10:08:29;;;;;;;2.63;2.33;;;9.60;99.90;;;;;;5027030;28;20243;-57
2022/02/14 10:11:11;;;;;;;3.30;2.10;;;9.70;99.90;;;;;;5024452;28;20205;-58
2022/02/14 10:13:39;;;;;;;4.53;2.37;;;9.60;99.90;;;;;;5025705;28;20281;-56
2022/02/14 10:16:12;;;;;;;2.07;1.87;;;9.60;99.90;;;;;;5026323;28;20261;-57
2022/02/14 10:18:41;;;;;;;2.57;1.70;;;9.60;99.90;;;;;;5024114;28;20355;-56
2022/02/14 10:21:25;;;;;;;2.07;1.67;;;9.60;99.90;;;;;;5026911;28;20270;-56
2022/02/14 10:24:08;;;;;;;3.10;2.07;;;9.50;99.90;;;;;;5038944;28;20211;-57
2022/02/14 10:26:43;;;;;;;3.10;1.70;;;9.60;99.90;;;;;;5028402;28;20239;-55
2022/02/14 10:29:12;;;;;;;4.20;2.00;;;9.50;99.90;;;;;;5030055;28;20297;-58
2022/02/14 10:31:42;;;;;;;2.90;1.80;;;9.50;99.90;;;;;;5028794;28;20310;-56
2022/02/14 10:34:09;;;;;;;4.83;2.50;;;9.50;99.90;;;;;;5025499;28;20242;-56
2022/02/14 10:36:40;;;;;;;2.70;2.30;;;9.50;99.90;;;;;;5021335;28;20208;-57
2022/02/14 10:39:09;;;;;;;3.50;2.20;;;9.60;87.00;;;;;;5020266;28;20200;-58
2022/02/14 10:41:36;;;;;;;4.17;2.30;;;9.60;1.00;;;;;;5022164;28;20687;-56
2022/02/14 10:44:12;;;;;;;2.43;1.93;;;9.90;1.00;;;;;;5026018;28;20784;-56
2022/02/14 10:46:40;;;;;;;3.53;2.10;;;10.40;22.30;;;;;;5026580;28;20691;-56
2022/02/14 10:49:09;;;;;;;3.93;2.17;;;10.60;1.00;;;;;;5021528;28;20869;-56
2022/02/14 10:51:53;;;;;;;5.17;2.30;;;10.70;99.90;;;;;;5020341;28;20192;-56
2022/02/14 10:54:24;;;;;;;4.20;2.00;;;10.60;56.30;;;;;;5026771;28;20209;-57
2022/02/14 10:56:51;;;;;;;2.27;1.70;;;10.30;1.00;;;;;;5027284;28;20278;-56
2022/02/14 10:59:20;;;;;;;2.37;1.70;;;10.30;99.90;;;;;;5016579;28;20222;-57
2022/02/14 11:01:47;;;;;;;3.90;1.67;;;10.40;99.90;;;;;;5027376;28;20297;-57
2022/02/14 11:04:14;;;;;;;1.87;1.53;;;10.40;1.00;;;;;;5020313;28;20209;-56
2022/02/14 11:06:42;;;;;;;2.80;2.00;;;10.30;1.00;;;;;;5021222;28;20240;-56
2022/02/14 11:09:09;;;;;;;6.00;1.90;;;10.30;99.90;;;;;;5023583;28;20744;-56
2022/02/14 11:11:36;;;;;;;3.40;2.20;;;10.20;1.00;;;;;;5022700;28;21181;-56
2022/02/14 11:14:04;;;;;;;4.20;2.23;;;10.20;99.90;;;;;;5022006;28;20652;-56
2022/02/14 11:16:34;;;;;;;3.63;1.60;;;10.20;99.90;;;;;;5017634;28;20323;-56
2022/02/14 11:19:02;;;;;;;2.50;1.83;;;10.10;1.00;;;;;;5021286;28;20732;-56
2022/02/14 11:21:32;;;;;;;1.73;1.57;;;10.10;1.00;;;;;;5022090;28;20205;-57
2022/02/14 11:24:16;;;;;;;2.20;1.63;;;10.10;1.00;;;;;;5016966;28;20212;-58
2022/02/14 11:26:55;;;;;;;2.77;1.80;;;10.10;99.90;;;;;;5020337;28;20212;-56
2022/02/14 11:29:31;;;;;;;3.60;1.93;;;10.20;1.00;;;;;;5018869;28;20260;-56
2022/02/14 11:32:39;;;;;;;3.57;2.17;;;10.20;1.00;;;;;;5023309;28;20200;-56
2022/02/14 11:35:17;;;;;;;3.03;1.40;;;10.20;1.00;;;;;;5019291;28;20831;-56
2022/02/14 11:37:54;;;;;;;3.10;1.60;;;10.20;21.80;;;;;;5018494;28;20269;-56
2022/02/14 11:40:45;;;;;;;2.17;1.53;;;10.20;99.90;;;;;;5014867;28;20208;-56
2022/02/14 11:43:22;;;;;;;3.20;1.53;;;10.10;1.00;;;;;;5017509;28;22651;-56
2022/02/14 11:46:10;;;;;;;2.37;1.70;;;10.10;99.90;;;;;;5017354;28;20358;-56
2022/02/14 11:48:37;;;;;;;4.50;1.67;;;10.20;99.90;;;;;;5019532;28;20228;-57
2022/02/14 11:51:11;;;;;;;6.27;1.43;;;10.60;1.00;;;;;;5015885;28;20732;-56
2022/02/14 11:53:45;;;;;;;3.63;1.40;;;10.80;1.00;;;;;;5010249;28;20281;-56
2022/02/14 11:56:23;;;;;;;2.90;0.90;;;10.60;1.00;;;;;;5010070;28;20668;-57
2022/02/14 11:59:03;;;;;;;1.73;1.00;;;11.00;99.90;;;;;;5013831;28;20279;-60
2022/02/14 12:01:35;;;;;;;3.27;0.90;;;11.30;1.00;;;;;;5011677;28;20218;-59
2022/02/14 12:04:30;;;;;;;1.37;0.70;;;11.40;1.00;;;;;;4994506;28;20262;-57
2022/02/14 12:07:32;;;;;;;3.07;1.03;;;11.60;99.90;;;;;;5019627;28;20774;-59
2022/02/14 12:10:03;;;;;;;4.63;0.90;;;11.70;99.90;;;;;;5001083;28;20869;-59
2022/02/14 12:12:45;;;;;;;1.60;1.00;;;11.20;99.90;;;;;;5021381;28;20232;-61
2022/02/14 12:20:52;;;;;;;1.83;1.00;;;10.50;1.00;;;;;;5024336;28;20291;-59
2022/02/14 12:23:30;;;;;;;4.07;1.20;;;11.30;99.90;;;;;;5013534;28;20286;-60
2022/02/14 12:25:57;;;;;;;4.53;1.10;;;11.40;4.00;;;;;;5002940;28;20219;-60
2022/02/14 12:28:25;;;;;;;3.80;1.00;;;11.10;1.00;;;;;;5013212;28;20204;-59
2022/02/14 12:30:54;;;;;;;3.53;1.27;;;10.70;1.00;;;;;;5014037;28;20563;-59
2022/02/14 12:33:20;;;;;;;1.90;1.20;;;10.60;1.00;;;;;;4996493;28;20246;-58
2022/02/14 12:35:53;;;;;;;3.03;1.20;;;10.50;1.00;;;;;;5024796;28;20332;-58
2022/02/14 12:38:25;;;;;;;1.40;1.30;;;10.60;1.00;;;;;;5013382;28;20249;-59
2022/02/14 12:40:57;;;;;;;3.87;1.30;;;10.50;1.00;;;;;;4996765;28;20669;-59
2022/02/14 12:43:41;;;;;;;1.20;1.10;;;10.50;99.90;;;;;;5021695;28;20317;-60
2022/02/14 12:46:15;;;;;;;3.87;1.50;;;10.60;1.00;;;;;;5012750;28;20785;-57
2022/02/14 12:48:46;;;;;;;2.67;1.60;;;10.60;8.80;;;;;;5010818;28;20199;-56
2022/02/14 12:51:12;;;;;;;3.97;1.60;;;10.70;1.00;;;;;;5010902;28;20239;-56
2022/02/14 12:53:49;;;;;;;2.00;1.20;;;10.70;1.00;;;;;;5010579;28;20654;-56
2022/02/14 12:56:22;;;;;;;3.17;1.40;;;10.70;1.00;;;;;;5009711;28;20362;-57
2022/02/14 12:58:51;;;;;;;2.00;1.30;;;10.60;1.00;;;;;;5010275;28;20375;-57
2022/02/14 13:01:26;;;;;;;3.70;1.40;;;10.50;1.00;;;;;;5018046;28;20669;-56
2022/02/14 13:04:03;;;;;;;3.83;1.43;;;10.50;1.00;;;;;;5011729;28;20231;-57
2022/02/14 13:06:39;;;;;;;4.90;1.57;;;10.50;99.90;;;;;;5013287;28;21012;-59
2022/02/14 13:09:24;;;;;;;4.50;1.30;;;9.90;1.00;;;;;;5036790;28;20551;-60
2022/02/14 13:11:57;;;;;;;1.17;1.03;;;9.50;1.00;;;;;;5009312;28;20395;-57